Woodson, Arkansas
Current Conditions -  °F | °C
As of 12:53 AM on Friday 31 Oct 2014 (Local Time) from KLIT Reporting Station
Clear Clear  
Wind Chill: 54°   Ceiling: Unl
Heat Index: 54°   Visibility: 10mi
Dew Point: 47°   Wind: 8mph
Humidity: 77%   Direction: 310°NW
Pressure: 30.05"   Gusts: NA
Location:  34.53°N, 92.21°W
Report Text: KLIT 310553Z 31007KT 10SM CLR 12/08 A3005 RMK AO2 SLP177 T01220083 10172 20111 402330072 51004
Loading
Personal Weather Stations






























Interactive Weather Map
Tropical Storm Tracking
New forecast layout! Learn more

10-Day Weather Forecast

Advertisements
Track Severe Weather on mobile